createdAt,value
2023-03-18T00:02:12.842Z,-0.03
2023-03-18T00:04:43.704Z,-0.59
2023-03-18T00:07:14.521Z,-1.02
2023-03-18T00:09:46.729Z,-1.16
2023-03-18T00:12:17.360Z,-1.15
2023-03-18T00:14:47.930Z,-0.94
2023-03-18T00:17:18.372Z,-0.50
2023-03-18T00:19:49.251Z,-0.51
2023-03-18T00:22:22.857Z,-1.10
2023-03-18T00:24:55.681Z,-1.21
2023-03-18T00:27:26.312Z,-0.58
2023-03-18T00:29:56.916Z,0.14
2023-03-18T00:32:29.171Z,0.56
2023-03-18T00:34:59.748Z,1.06
2023-03-18T00:37:32.713Z,1.06
2023-03-18T00:40:07.656Z,0.74
2023-03-18T00:42:48.194Z,0.15
2023-03-18T00:45:19.713Z,-0.35
2023-03-18T00:47:51.106Z,-0.78
2023-03-18T00:50:21.748Z,-0.71
2023-03-18T00:52:52.674Z,-0.04
2023-03-18T00:55:25.129Z,0.44
2023-03-18T00:57:55.715Z,1.04
2023-03-18T01:00:27.035Z,1.35
2023-03-18T01:02:57.766Z,0.84
2023-03-18T01:05:28.375Z,1.45
2023-03-18T01:07:58.940Z,1.49
2023-03-18T01:10:31.311Z,1.29
2023-03-18T01:13:02.787Z,1.06
2023-03-18T01:15:33.338Z,0.36
2023-03-18T01:18:04.951Z,0.92
2023-03-18T01:20:35.566Z,1.05
2023-03-18T01:23:06.493Z,1.14
2023-03-18T01:25:39.084Z,1.33
2023-03-18T01:28:09.823Z,1.65
2023-03-18T01:30:40.433Z,3.08
2023-03-18T01:33:11.498Z,3.86
2023-03-18T01:35:42.116Z,4.04
2023-03-18T01:38:13.279Z,4.13
2023-03-18T01:40:46.195Z,4.54
2023-03-18T01:43:20.378Z,4.60
2023-03-18T01:45:53.362Z,3.85
2023-03-18T01:48:26.758Z,3.52
2023-03-18T01:51:02.290Z,3.31
2023-03-18T01:53:38.039Z,3.17
2023-03-18T01:56:11.507Z,4.04
2023-03-18T01:58:44.624Z,4.00
2023-03-18T02:01:21.405Z,4.06
2023-03-18T02:03:53.760Z,3.43
2023-03-18T02:06:24.245Z,2.82
2023-03-18T02:08:55.412Z,2.20
2023-03-18T02:11:27.964Z,1.21
2023-03-18T02:13:58.493Z,1.09
2023-03-18T02:16:33.540Z,1.31
2023-03-18T02:19:09.082Z,1.54
2023-03-18T02:21:50.779Z,1.98
2023-03-18T02:24:39.690Z,2.33
2023-03-18T02:27:21.364Z,2.63
2023-03-18T02:29:55.693Z,2.56
2023-03-18T02:32:29.637Z,2.44
2023-03-18T02:35:02.492Z,2.19
2023-03-18T02:37:32.995Z,2.67
2023-03-18T02:40:17.592Z,2.63
2023-03-18T02:42:50.106Z,3.10
2023-03-18T02:45:36.369Z,2.73
2023-03-18T02:48:10.524Z,2.68
2023-03-18T02:50:42.389Z,2.18
2023-03-18T02:53:15.011Z,1.94
2023-03-18T02:55:45.558Z,1.86
2023-03-18T02:58:17.602Z,2.28
2023-03-18T03:00:47.960Z,2.85
2023-03-18T03:03:18.744Z,3.16
2023-03-18T03:05:49.539Z,3.00
2023-03-18T03:08:20.239Z,2.76
2023-03-18T03:10:51.920Z,2.78
2023-03-18T03:13:25.400Z,2.91
2023-03-18T03:15:56.680Z,2.54
2023-03-18T03:18:27.450Z,2.49
2023-03-18T03:20:57.937Z,2.70
2023-03-18T03:23:28.501Z,2.71
2023-03-18T03:25:59.019Z,3.05
2023-03-18T03:28:31.608Z,3.22
2023-03-18T03:31:02.659Z,2.94
2023-03-18T03:33:33.223Z,2.87
2023-03-18T03:36:03.725Z,2.50
2023-03-18T03:38:34.528Z,2.55
2023-03-18T03:41:04.971Z,2.81
2023-03-18T03:43:37.118Z,2.78
2023-03-18T03:46:08.021Z,2.71
2023-03-18T03:48:40.219Z,3.07
2023-03-18T03:51:10.704Z,2.95
2023-03-18T03:53:41.715Z,3.16
2023-03-18T03:56:12.233Z,3.27
2023-03-18T03:58:44.432Z,3.13
2023-03-18T04:01:14.934Z,2.89
2023-03-18T04:03:45.475Z,2.31
2023-03-18T04:06:16.238Z,2.02
2023-03-18T04:08:47.087Z,2.23
2023-03-18T04:11:21.232Z,2.36
2023-03-18T04:13:53.274Z,2.50
2023-03-18T04:16:24.041Z,2.51
2023-03-18T04:18:54.602Z,2.55
2023-03-18T04:21:25.025Z,2.47
2023-03-18T04:23:55.562Z,2.18
2023-03-18T04:26:26.098Z,1.73
2023-03-18T04:28:58.194Z,0.71
2023-03-18T04:31:29.293Z,0.72
2023-03-18T04:34:00.711Z,0.95
2023-03-18T04:36:31.183Z,1.20
2023-03-18T04:39:02.149Z,1.14
2023-03-18T04:41:32.638Z,1.09
2023-03-18T04:44:04.815Z,1.14
2023-03-18T04:46:35.934Z,1.03
2023-03-18T04:49:06.537Z,0.63
2023-03-18T04:51:38.522Z,1.37
2023-03-18T04:54:09.179Z,1.58
2023-03-18T04:56:39.994Z,1.84
2023-03-18T04:59:12.807Z,2.04
2023-03-18T05:01:43.268Z,2.02
2023-03-18T05:04:13.999Z,1.90
2023-03-18T05:06:44.501Z,1.60
2023-03-18T05:09:15.269Z,1.54
2023-03-18T05:11:58.897Z,1.52
2023-03-18T05:14:31.841Z,1.53
2023-03-18T05:17:02.372Z,1.47
2023-03-18T05:19:33.679Z,1.35
2023-03-18T05:22:04.166Z,1.51
2023-03-18T05:24:48.565Z,1.64
2023-03-18T05:27:20.668Z,1.35
2023-03-18T05:29:52.741Z,2.02
2023-03-18T05:32:23.265Z,2.31
2023-03-18T05:34:53.866Z,2.36
2023-03-18T05:37:24.346Z,1.94
2023-03-18T05:39:54.818Z,1.61
2023-03-18T05:42:25.365Z,1.87
2023-03-18T05:44:58.749Z,1.82
2023-03-18T05:47:29.190Z,1.77
2023-03-18T05:49:59.701Z,1.80
2023-03-18T05:52:30.228Z,1.87
2023-03-18T05:55:00.791Z,1.56
2023-03-18T05:57:31.274Z,1.25
2023-03-18T06:00:04.480Z,1.06
2023-03-18T06:02:35.130Z,1.03
2023-03-18T06:05:06.009Z,0.89
2023-03-18T06:07:39.810Z,0.37
2023-03-18T06:10:12.822Z,0.68
2023-03-18T06:12:45.345Z,0.67
2023-03-18T06:15:18.036Z,0.67
2023-03-18T06:17:48.546Z,0.75
2023-03-18T06:20:20.307Z,0.50
2023-03-18T06:22:51.391Z,0.49
2023-03-18T06:25:23.197Z,0.27
2023-03-18T06:27:53.963Z,0.29
2023-03-18T06:30:26.775Z,0.51
2023-03-18T06:32:57.284Z,0.83
2023-03-18T06:35:28.981Z,0.70
2023-03-18T06:37:59.333Z,0.45
2023-03-18T06:40:29.669Z,0.29
2023-03-18T06:43:00.112Z,0.11
2023-03-18T06:45:32.266Z,0.01
2023-03-18T06:48:04.715Z,-0.23
2023-03-18T06:50:35.411Z,-0.34
2023-03-18T06:53:06.332Z,-0.34
2023-03-18T06:55:36.880Z,-0.27
2023-03-18T06:58:07.833Z,-0.23
2023-03-18T07:00:42.423Z,-0.39
2023-03-18T07:03:12.902Z,-0.30
2023-03-18T07:05:43.326Z,-0.39
2023-03-18T07:08:14.099Z,-0.36
2023-03-18T07:10:44.832Z,-0.44
2023-03-18T07:13:16.267Z,-0.14
2023-03-18T07:15:48.433Z,-0.10
2023-03-18T07:18:19.382Z,-0.12
2023-03-18T07:20:49.963Z,-0.16
2023-03-18T07:23:20.547Z,-0.16
2023-03-18T07:25:51.070Z,-0.10
2023-03-18T07:28:21.922Z,-0.02
2023-03-18T07:30:54.424Z,0.01
2023-03-18T07:33:24.952Z,0.01
2023-03-18T07:35:55.563Z,0.00
2023-03-18T07:38:26.360Z,-0.08
2023-03-18T07:40:57.634Z,-0.11
2023-03-18T07:43:28.115Z,-0.14
2023-03-18T07:46:00.631Z,-0.18
2023-03-18T07:48:31.493Z,-0.17
2023-03-18T07:51:01.940Z,-0.20
2023-03-18T07:53:35.655Z,-0.27
2023-03-18T07:56:06.136Z,-0.26
2023-03-18T07:58:36.671Z,-0.21
2023-03-18T08:01:09.194Z,-0.24
2023-03-18T08:03:45.464Z,-0.27
2023-03-18T08:06:16.557Z,-0.39
2023-03-18T08:08:52.755Z,-0.80
2023-03-18T08:11:23.213Z,-0.36
2023-03-18T08:13:58.668Z,-0.40
2023-03-18T08:16:32.349Z,-0.55
2023-03-18T08:19:08.462Z,-0.46
2023-03-18T08:21:39.101Z,-0.51
2023-03-18T08:24:13.012Z,-0.51
2023-03-18T08:26:43.711Z,-0.61
2023-03-18T08:29:14.217Z,-0.65
2023-03-18T08:31:48.781Z,-0.66
2023-03-18T08:34:19.319Z,-0.67
2023-03-18T08:36:49.863Z,-0.67
2023-03-18T08:39:21.014Z,-0.71
2023-03-18T08:41:51.575Z,-0.81
2023-03-18T08:44:24.649Z,-0.91
2023-03-18T08:47:09.589Z,-1.01
2023-03-18T08:49:43.311Z,-1.28
2023-03-18T08:52:14.718Z,-1.20
2023-03-18T08:54:48.309Z,-1.30
2023-03-18T08:57:18.910Z,-1.35
2023-03-18T08:59:51.949Z,-1.48
2023-03-18T09:02:24.433Z,-1.54
2023-03-18T09:05:43.415Z,-1.66
2023-03-18T09:08:30.356Z,-1.70
2023-03-18T09:11:01.138Z,-1.70
2023-03-18T09:13:40.338Z,-1.86
2023-03-18T09:16:11.628Z,-1.75
2023-03-18T09:19:03.198Z,-1.81
2023-03-18T09:21:42.823Z,-1.86
2023-03-18T09:24:32.001Z,-1.92
2023-03-18T09:27:08.918Z,-1.98
2023-03-18T09:29:39.733Z,-2.25
2023-03-18T09:32:12.032Z,-1.96
2023-03-18T09:34:45.491Z,-1.94
2023-03-18T09:37:16.134Z,-1.95
2023-03-18T09:39:47.001Z,-2.17
2023-03-18T09:42:32.103Z,-2.05
2023-03-18T09:45:08.319Z,-2.07
2023-03-18T09:47:58.901Z,-2.57
2023-03-18T09:50:40.996Z,-2.15
2023-03-18T09:53:26.630Z,-2.09
2023-03-18T09:56:01.908Z,-2.20
2023-03-18T09:58:47.303Z,-2.17
2023-03-18T10:01:20.072Z,-2.15
2023-03-18T10:03:58.808Z,-2.09
2023-03-18T10:06:32.990Z,-2.14
2023-03-18T10:09:12.706Z,-2.06
2023-03-18T10:11:48.377Z,-2.27
2023-03-18T10:14:42.465Z,-2.07
2023-03-18T10:17:31.958Z,-2.17
2023-03-18T10:20:15.374Z,-2.17
2023-03-18T10:23:10.047Z,-2.30
2023-03-18T10:25:47.749Z,-2.19
2023-03-18T10:28:45.208Z,-2.22
2023-03-18T10:31:33.431Z,-2.32
2023-03-18T10:34:10.625Z,-2.28
2023-03-18T10:36:52.170Z,-2.30
2023-03-18T10:39:28.190Z,-2.33
2023-03-18T10:42:02.394Z,-2.41
2023-03-18T10:44:39.496Z,-2.58
2023-03-18T10:47:19.796Z,-2.56
2023-03-18T10:49:54.545Z,-2.53
2023-03-18T10:52:37.979Z,-2.56
2023-03-18T10:55:18.433Z,-2.57
2023-03-18T10:57:49.019Z,-2.62
2023-03-18T11:00:31.177Z,-2.73
2023-03-18T11:03:06.806Z,-2.58
2023-03-18T11:05:42.137Z,-2.70
2023-03-18T11:08:36.199Z,-2.38
2023-03-18T11:11:25.294Z,-3.33
2023-03-18T11:14:00.774Z,-2.33
2023-03-18T11:16:39.101Z,-2.39
2023-03-18T11:19:38.117Z,-2.42
2023-03-18T11:22:23.660Z,-2.81
2023-03-18T11:25:15.044Z,-2.48
2023-03-18T11:27:49.251Z,-2.40
2023-03-18T11:30:33.937Z,-2.73
2023-03-18T11:33:16.567Z,-2.50
2023-03-18T11:35:51.461Z,-2.51
2023-03-18T11:38:23.689Z,-2.59
2023-03-18T11:40:59.380Z,-2.59
2023-03-18T11:43:31.846Z,-2.57
2023-03-18T11:46:08.045Z,-2.66
2023-03-18T11:48:50.556Z,-2.71
2023-03-18T11:51:36.212Z,-2.65
2023-03-18T11:54:22.372Z,-2.69
2023-03-18T11:56:58.191Z,-2.73
2023-03-18T11:59:52.543Z,-2.81
2023-03-18T12:02:48.597Z,-2.75
2023-03-18T12:05:44.444Z,-2.81
2023-03-18T12:08:23.693Z,-2.80
2023-03-18T12:11:10.343Z,-2.72
2023-03-18T12:13:56.397Z,-2.72
2023-03-18T12:16:45.835Z,-2.79
2023-03-18T12:19:40.273Z,-2.73
2023-03-18T12:22:25.972Z,-2.66
2023-03-18T12:25:34.633Z,-2.66
2023-03-18T12:28:19.662Z,-2.56
2023-03-18T12:31:05.343Z,-2.59
2023-03-18T12:33:48.578Z,-2.69
2023-03-18T12:36:29.248Z,-2.55
2023-03-18T12:39:41.211Z,-2.51
2023-03-18T12:42:19.392Z,-2.52
2023-03-18T12:45:03.830Z,-2.54
2023-03-18T12:47:39.362Z,-2.58
2023-03-18T12:50:20.460Z,-2.50
2023-03-18T12:52:56.860Z,-2.45
2023-03-18T12:55:37.199Z,-2.45
2023-03-18T12:58:18.512Z,-2.49
2023-03-18T13:00:57.568Z,-3.36
2023-03-18T13:04:22.145Z,-3.44
2023-03-18T13:07:20.573Z,-3.50
2023-03-18T13:10:01.567Z,-3.59
2023-03-18T13:12:38.099Z,-3.66
2023-03-18T13:15:18.345Z,-3.69
2023-03-18T13:17:54.357Z,-3.69
2023-03-18T13:20:44.597Z,-3.78
2023-03-18T13:23:42.826Z,-3.72
2023-03-18T13:26:28.190Z,-3.77
2023-03-18T13:29:19.741Z,-3.83
2023-03-18T13:31:58.044Z,-3.86
2023-03-18T13:34:57.693Z,-3.83
2023-03-18T13:38:05.976Z,-3.87
2023-03-18T13:40:59.586Z,-4.03
2023-03-18T13:43:32.968Z,-3.95
2023-03-18T13:46:08.051Z,-3.98
2023-03-18T13:48:53.404Z,-4.11
2023-03-18T13:52:02.530Z,-3.99
2023-03-18T13:54:56.939Z,-4.07
2023-03-18T13:57:50.400Z,-4.24
2023-03-18T14:00:41.282Z,-4.28
2023-03-18T14:03:33.840Z,-4.29
2023-03-18T14:06:46.393Z,-4.86
2023-03-18T14:09:50.037Z,-4.16
2023-03-18T14:12:43.490Z,-4.53
2023-03-18T14:15:45.334Z,-3.97
2023-03-18T14:18:30.076Z,-4.18
2023-03-18T14:21:06.402Z,-3.93
2023-03-18T14:23:44.005Z,-3.87
2023-03-18T14:26:30.294Z,-4.16
2023-03-18T14:29:32.222Z,-3.92
2023-03-18T14:32:09.840Z,-3.76
2023-03-18T14:34:57.504Z,-3.90
2023-03-18T14:37:32.779Z,-3.56
2023-03-18T14:40:09.980Z,-3.69
2023-03-18T14:43:02.093Z,-3.44
2023-03-18T14:45:38.307Z,-3.59
2023-03-18T14:48:22.389Z,-3.69
2023-03-18T14:50:55.526Z,-3.99
2023-03-18T14:53:46.837Z,-3.77
2023-03-18T14:56:22.636Z,-3.78
2023-03-18T14:58:56.303Z,-3.79
2023-03-18T15:01:37.025Z,-3.66
2023-03-18T15:04:28.337Z,-3.66
2023-03-18T15:07:04.337Z,-3.62
2023-03-18T15:09:39.058Z,-3.58
2023-03-18T15:12:27.605Z,-3.53
2023-03-18T15:14:58.601Z,-3.52
2023-03-18T15:17:29.859Z,-3.66
2023-03-18T15:20:02.831Z,-3.79
2023-03-18T15:22:36.477Z,-3.83
2023-03-18T15:25:13.046Z,-3.97
2023-03-18T15:27:55.893Z,-3.88
2023-03-18T15:30:36.553Z,-3.97
2023-03-18T15:33:12.644Z,-4.38
2023-03-18T15:35:48.455Z,-4.14
2023-03-18T15:38:27.595Z,-4.15
2023-03-18T15:41:04.175Z,-4.21
2023-03-18T15:44:01.162Z,-4.51
2023-03-18T15:46:47.195Z,-4.24
2023-03-18T15:49:51.898Z,-4.36
2023-03-18T15:54:03.093Z,-4.42
2023-03-18T15:56:46.207Z,-4.63
2023-03-18T15:59:18.500Z,-4.45
2023-03-18T16:01:49.574Z,-4.40
2023-03-18T16:04:21.031Z,-4.38
2023-03-18T16:06:54.915Z,-4.43
2023-03-18T16:09:26.613Z,-4.49
2023-03-18T16:12:16.704Z,-4.39
2023-03-18T16:14:46.857Z,-4.43
2023-03-18T16:17:21.471Z,-4.43
2023-03-18T16:19:56.550Z,-4.53
2023-03-18T16:22:27.270Z,-4.49
2023-03-18T16:25:02.075Z,-4.52
2023-03-18T16:27:39.139Z,-4.49
2023-03-18T16:30:18.804Z,-4.61
2023-03-18T16:32:49.665Z,-4.48
2023-03-18T16:35:22.158Z,-4.58
2023-03-18T16:37:53.897Z,-4.57
2023-03-18T16:40:26.619Z,-4.48
2023-03-18T16:43:03.372Z,-4.49
2023-03-18T16:45:40.206Z,-4.45
2023-03-18T16:48:17.959Z,-4.43
2023-03-18T16:50:50.964Z,-4.62
2023-03-18T16:53:27.399Z,-4.42
2023-03-18T16:56:00.577Z,-4.47
2023-03-18T16:58:36.941Z,-4.56
2023-03-18T17:01:08.259Z,-4.95
2023-03-18T17:03:43.440Z,-4.63
2023-03-18T17:06:14.111Z,-5.05
2023-03-18T17:08:47.390Z,-4.96
2023-03-18T17:11:20.586Z,-5.20
2023-03-18T17:13:54.422Z,-5.40
2023-03-18T17:16:30.720Z,-5.60
2023-03-18T17:19:01.685Z,-5.90
2023-03-18T17:21:35.743Z,-6.02
2023-03-18T17:24:12.676Z,-6.23
2023-03-18T17:26:43.993Z,-6.19
2023-03-18T17:29:24.440Z,-6.11
2023-03-18T17:31:57.933Z,-6.10
2023-03-18T17:34:28.543Z,-6.13
2023-03-18T17:37:02.193Z,-6.19
2023-03-18T17:39:35.515Z,-6.32
2023-03-18T17:42:08.777Z,-6.61
2023-03-18T17:44:44.348Z,-6.72
2023-03-18T17:47:20.249Z,-6.71
2023-03-18T17:49:54.758Z,-6.67
2023-03-18T17:52:28.302Z,-6.63
2023-03-18T17:54:58.834Z,-6.83
2023-03-18T17:57:29.506Z,-6.92
2023-03-18T18:00:01.810Z,-7.08
2023-03-18T18:02:40.278Z,-6.97
2023-03-18T18:05:17.146Z,-7.10
2023-03-18T18:07:51.077Z,-7.21
2023-03-18T18:10:23.338Z,-7.63
2023-03-18T18:12:54.414Z,-7.38
2023-03-18T18:15:28.494Z,-7.50
2023-03-18T18:18:04.681Z,-7.67
2023-03-18T18:20:35.355Z,-7.69
2023-03-18T18:23:09.533Z,-7.63
2023-03-18T18:25:39.987Z,-7.54
2023-03-18T18:28:20.336Z,-7.49
2023-03-18T18:30:52.808Z,-7.55
2023-03-18T18:33:26.567Z,-7.45
2023-03-18T18:36:01.043Z,-7.41
2023-03-18T18:38:31.684Z,-7.56
2023-03-18T18:41:03.471Z,-7.84
2023-03-18T18:43:34.317Z,-7.99
2023-03-18T18:46:09.800Z,-8.13
2023-03-18T18:48:44.446Z,-8.19
2023-03-18T18:51:22.226Z,-8.22
2023-03-18T18:53:57.576Z,-7.96
2023-03-18T18:56:35.417Z,-7.91
2023-03-18T18:59:18.957Z,-7.87
2023-03-18T19:01:54.404Z,-7.74
2023-03-18T19:04:26.349Z,-7.58
2023-03-18T19:06:59.413Z,-7.48
2023-03-18T19:09:34.885Z,-7.33
2023-03-18T19:12:27.771Z,-7.39
2023-03-18T19:14:58.487Z,-7.47
2023-03-18T19:17:31.372Z,-7.66
2023-03-18T19:20:01.750Z,-7.78
2023-03-18T19:22:32.533Z,-7.89
2023-03-18T19:25:06.027Z,-8.06
2023-03-18T19:27:36.740Z,-8.17
2023-03-18T19:30:23.494Z,-8.69
2023-03-18T19:32:55.544Z,-8.22
2023-03-18T19:35:26.313Z,-8.32
2023-03-18T19:37:57.322Z,-8.36
2023-03-18T19:40:36.826Z,-8.31
2023-03-18T19:43:15.757Z,-8.20
2023-03-18T19:45:51.846Z,-8.15
2023-03-18T19:48:29.377Z,-8.13
2023-03-18T19:51:02.008Z,-8.06
2023-03-18T19:53:35.137Z,-7.99
2023-03-18T19:56:08.154Z,-7.90
2023-03-18T19:58:42.346Z,-7.79
2023-03-18T20:01:12.947Z,-7.75
2023-03-18T20:03:44.941Z,-7.88
2023-03-18T20:06:15.394Z,-7.94
2023-03-18T20:08:45.906Z,-7.96
2023-03-18T20:11:17.804Z,-7.96
2023-03-18T20:16:20.415Z,-8.30
2023-03-18T20:18:52.459Z,-8.07
2023-03-18T20:21:28.166Z,-8.43
2023-03-18T20:24:02.718Z,-8.11
2023-03-18T20:26:33.149Z,-8.28
2023-03-18T20:29:04.677Z,-8.39
2023-03-18T20:31:35.129Z,-8.52
2023-03-18T20:34:07.403Z,-8.52
2023-03-18T20:36:37.944Z,-8.40
2023-03-18T20:39:09.018Z,-8.36
2023-03-18T20:41:40.189Z,-8.27
2023-03-18T20:44:14.929Z,-7.95
2023-03-18T20:46:45.240Z,-7.64
2023-03-18T20:49:17.246Z,-7.61
2023-03-18T20:51:47.772Z,-7.88
2023-03-18T20:54:20.788Z,-8.15
2023-03-18T20:56:51.071Z,-8.08
2023-03-18T20:59:21.496Z,-8.11
2023-03-18T21:01:52.237Z,-8.08
2023-03-18T21:04:24.445Z,-8.68
2023-03-18T21:06:54.897Z,-7.72
2023-03-18T21:09:25.317Z,-7.44
2023-03-18T21:11:55.715Z,-7.23
2023-03-18T21:14:26.147Z,-7.13
2023-03-18T21:16:56.600Z,-7.11
2023-03-18T21:19:28.614Z,-7.08
2023-03-18T21:21:59.441Z,-6.92
2023-03-18T21:24:31.316Z,-6.91
2023-03-18T21:27:05.057Z,-6.71
2023-03-18T21:29:36.239Z,-6.54
2023-03-18T21:32:07.242Z,-6.46
2023-03-18T21:34:39.402Z,-6.40
2023-03-18T21:37:16.700Z,-6.32
2023-03-18T21:39:47.229Z,-6.22
2023-03-18T21:42:23.098Z,-6.14
2023-03-18T21:44:53.658Z,-6.00
2023-03-18T21:47:26.008Z,-5.77
2023-03-18T21:49:58.043Z,-5.66
2023-03-18T21:52:32.462Z,-5.49
2023-03-18T21:55:03.880Z,-5.22
2023-03-18T21:57:37.899Z,-5.09
2023-03-18T22:00:09.548Z,-5.14
2023-03-18T22:02:40.671Z,-5.09
2023-03-18T22:05:16.847Z,-5.28
2023-03-18T22:07:47.662Z,-4.86
2023-03-18T22:10:20.456Z,-5.02
2023-03-18T22:12:50.857Z,-4.95
2023-03-18T22:15:37.451Z,-4.83
2023-03-18T22:18:09.676Z,-4.77
2023-03-18T22:20:42.582Z,-4.60
2023-03-18T22:23:21.032Z,-4.46
2023-03-18T22:25:53.459Z,-4.37
2023-03-18T22:28:24.851Z,-4.39
2023-03-18T22:31:00.854Z,-3.99
2023-03-18T22:33:35.650Z,-3.98
2023-03-18T22:36:26.275Z,-3.70
2023-03-18T22:38:56.630Z,-3.52
2023-03-18T22:41:31.027Z,-3.37
2023-03-18T22:44:05.302Z,-3.27
2023-03-18T22:46:35.740Z,-2.99
2023-03-18T22:49:08.975Z,-2.82
2023-03-18T22:51:42.986Z,-2.72
2023-03-18T22:54:20.306Z,-2.40
2023-03-18T22:56:50.675Z,-2.07
2023-03-18T22:59:21.078Z,-1.85
2023-03-18T23:01:51.674Z,-1.75
2023-03-18T23:04:22.128Z,-1.26
2023-03-18T23:06:54.325Z,-0.90
2023-03-18T23:09:24.736Z,-0.68
2023-03-18T23:11:55.245Z,-0.45
2023-03-18T23:14:25.721Z,-0.07
2023-03-18T23:16:56.284Z,0.24
2023-03-18T23:19:26.741Z,0.49
2023-03-18T23:21:58.812Z,0.71
2023-03-18T23:24:29.113Z,0.83
2023-03-18T23:26:59.544Z,0.95
2023-03-18T23:29:29.958Z,1.02
2023-03-18T23:32:03.008Z,1.13
2023-03-18T23:34:33.425Z,1.21
2023-03-18T23:37:05.432Z,1.12
2023-03-18T23:39:35.890Z,1.29
2023-03-18T23:42:06.627Z,1.43
2023-03-18T23:44:39.896Z,1.53
2023-03-18T23:47:11.372Z,1.31
2023-03-18T23:49:42.509Z,1.80
2023-03-18T23:52:16.826Z,1.97
2023-03-18T23:54:47.246Z,2.16
2023-03-18T23:57:17.848Z,2.20
2023-03-18T23:59:48.367Z,2.49
